Time;durP1;ratioP1;P1;durP2;ratioP2;P2;SDS_P1;SDS_P2;PMS_P1;PMS_P2;Temp;Humidity;BMP_temperature;BMP_pressure;BME280_temperature;BME280_humidity;BME280_pressure;Samples;Min_cycle;Max_cycle;Signal;HPM_P1;HPM_P2
2022/01/25 00:15:23;;;;;;;13.70;4.53;;;;;;;6.53;95.76;102642.94;4924089;29;20125;-71
2022/01/25 00:26:18;;;;;;;17.80;5.28;;;;;;;6.51;95.82;102651.25;4923760;29;20047;-71
2022/01/25 00:31:28;;;;;;;17.40;4.75;;;;;;;6.49;95.87;102645.38;4923805;29;20445;-71
2022/01/25 00:33:54;;;;;;;14.20;5.60;;;;;;;6.51;95.51;102640.56;4920942;29;20156;-71
2022/01/25 00:36:22;;;;;;;13.23;4.45;;;;;;;6.52;95.63;102631.47;4919502;29;20644;-71
2022/01/25 00:38:49;;;;;;;16.23;6.00;;;;;;;6.51;95.71;102632.53;4924209;29;20691;-70
2022/01/25 00:41:16;;;;;;;12.43;4.45;;;;;;;6.51;95.53;102632.53;4923702;29;20047;-70
2022/01/25 00:43:42;;;;;;;22.20;6.57;;;;;;;6.46;95.96;102624.53;4923983;29;20035;-71
2022/01/25 00:46:10;;;;;;;19.05;5.07;;;;;;;6.39;96.59;102627.53;4924150;29;20993;-70
2022/01/25 00:54:03;;;;;;;21.75;5.30;;;;;;;6.39;96.50;102624.03;4924169;29;20116;-71
2022/01/25 00:56:35;;;;;;;11.07;3.88;;;;;;;6.63;95.83;102624.16;4921423;29;20425;-70
2022/01/25 00:59:05;;;;;;;17.63;5.63;;;;;;;6.46;96.21;102621.88;4924320;29;20039;-70
2022/01/25 01:01:33;;;;;;;16.75;4.78;;;;;;;6.55;95.89;102617.50;4919497;29;20044;-71
2022/01/25 01:03:58;;;;;;;11.32;4.28;;;;;;;6.57;95.64;102617.22;4923164;29;20047;-70
2022/01/25 01:06:27;;;;;;;21.80;5.88;;;;;;;6.46;95.84;102619.19;4921331;29;20636;-70
2022/01/25 01:08:53;;;;;;;24.50;6.90;;;;;;;6.34;96.62;102611.50;4923406;29;20044;-71
2022/01/25 01:11:27;;;;;;;22.08;5.55;;;;;;;6.38;96.46;102619.78;4920158;29;20422;-71
2022/01/25 01:35:45;;;;;;;16.92;5.13;;;;;;;6.62;95.71;102611.84;4923020;29;20046;-70
2022/01/25 01:38:40;;;;;;;18.63;5.35;;;;;;;6.55;95.79;102614.03;4920481;29;20040;-71
2022/01/25 01:41:23;;;;;;;15.43;6.20;;;;;;;6.45;96.41;102611.41;4921152;29;20039;-70
2022/01/25 01:43:54;;;;;;;15.45;5.32;;;;;;;6.41;96.57;102611.19;4921883;29;20044;-70
2022/01/25 01:46:32;;;;;;;13.18;5.47;;;;;;;6.52;96.36;102606.56;4906557;29;20051;-70
2022/01/25 01:49:00;;;;;;;17.60;5.85;;;;;;;6.45;96.44;102609.56;4922063;29;20051;-70
2022/01/25 01:51:32;;;;;;;16.50;5.75;;;;;;;6.45;96.28;102606.06;4921877;29;20043;-70
2022/01/25 01:54:09;;;;;;;19.75;5.90;;;;;;;6.43;96.96;102609.03;4919947;29;20061;-71
2022/01/25 01:56:36;;;;;;;24.42;6.72;;;;;;;6.44;96.71;102617.88;4907142;29;20493;-71
2022/01/25 01:59:05;;;;;;;19.15;6.85;;;;;;;6.47;96.14;102603.91;4921300;29;20107;-71
2022/01/25 02:01:31;;;;;;;17.23;6.57;;;;;;;6.62;95.70;102607.28;4921214;29;20071;-70
2022/01/25 02:04:02;;;;;;;23.27;5.97;;;;;;;6.54;95.60;102610.56;4919352;29;20032;-71
2022/01/25 02:06:27;;;;;;;27.63;7.82;;;;;;;6.51;95.76;102602.28;4920241;29;20396;-70
2022/01/25 02:08:53;;;;;;;20.30;7.07;;;;;;;6.38;96.83;102607.22;4921924;29;20035;-72
2022/01/25 02:11:19;;;;;;;21.40;7.60;;;;;;;6.31;97.01;102605.88;4921852;29;20127;-69
2022/01/25 02:13:46;;;;;;;24.15;7.38;;;;;;;6.50;96.25;102603.38;4904041;29;20039;-70
2022/01/25 02:16:30;;;;;;;21.48;6.32;;;;;;;6.34;96.73;102606.16;4920237;29;20051;-70
2022/01/25 02:24:24;;;;;;;24.20;7.68;;;;;;;6.44;96.59;102589.25;4922065;29;20043;-70
2022/01/25 02:26:55;;;;;;;20.65;6.85;;;;;;;6.46;96.70;102591.63;4921400;29;20046;-73
2022/01/25 02:29:20;;;;;;;23.63;7.53;;;;;;;6.55;96.54;102592.63;4922189;29;20051;-70
2022/01/25 02:31:46;;;;;;;30.58;8.52;;;;;;;6.39;96.57;102587.38;4904798;29;20339;-73
2022/01/25 02:34:11;;;;;;;21.05;6.20;;;;;;;6.50;96.35;102592.66;4919736;29;20038;-70
2022/01/25 02:36:37;;;;;;;27.98;7.38;;;;;;;6.46;96.51;102587.09;4918922;29;20038;-73
2022/01/25 02:39:03;;;;;;;28.63;8.10;;;;;;;6.35;97.29;102593.56;4899864;29;20103;-70
2022/01/25 02:41:28;;;;;;;23.83;7.85;;;;;;;6.41;97.15;102597.03;4911901;29;20520;-71
2022/01/25 02:43:53;;;;;;;21.77;7.00;;;;;;;6.42;97.36;102595.94;4903189;29;20040;-72
2022/01/25 02:48:29;;;;;;;25.35;7.65;;;;;;;6.45;96.95;102593.50;4920150;29;20488;-70
2022/01/25 02:49:08;;;;;;;28.83;7.00;;;;;;;6.56;96.58;102596.91;4921860;29;20044;-72
2022/01/25 02:51:42;;;;;;;18.35;6.90;;;;;;;6.48;96.37;102589.47;4899648;29;20099;-71
2022/01/25 02:54:09;;;;;;;36.20;8.02;;;;;;;6.39;97.40;102599.97;4921419;29;20035;-70
2022/01/25 02:56:37;;;;;;;22.27;6.00;;;;;;;6.48;96.97;102603.66;4921541;29;20063;-71
2022/01/25 02:59:05;;;;;;;29.08;8.77;;;;;;;6.39;97.03;102598.09;4922685;29;20044;-70
2022/01/25 03:01:31;;;;;;;27.30;7.60;;;;;;;6.39;97.66;102594.59;4919617;29;20035;-70
2022/01/25 03:03:57;;;;;;;24.92;7.07;;;;;;;6.42;97.63;102602.09;4920928;29;20044;-70
2022/01/25 03:06:23;;;;;;;26.75;8.40;;;;;;;6.56;96.62;102597.72;4921940;29;20047;-71
2022/01/25 03:08:49;;;;;;;24.13;6.90;;;;;;;6.47;97.47;102588.66;4917877;29;20042;-71
2022/01/25 03:11:17;;;;;;;25.77;7.60;;;;;;;6.37;97.71;102586.88;4921252;29;20879;-71
2022/01/25 03:13:56;;;;;;;20.00;6.75;;;;;;;6.25;98.43;102589.09;4921019;29;20552;-71
2022/01/25 03:16:32;;;;;;;22.23;7.07;;;;;;;6.41;98.25;102580.97;4919303;29;20382;-70
2022/01/25 03:19:02;;;;;;;31.73;7.97;;;;;;;6.67;96.88;102575.13;4900586;29;20581;-70
2022/01/25 03:23:55;;;;;;;27.38;8.50;;;;;;;6.31;98.92;102565.75;4925198;29;20035;-71
2022/01/25 03:26:21;;;;;;;25.75;7.75;;;;;;;6.33;98.97;102564.41;4925802;29;20047;-71
2022/01/25 03:28:47;;;;;;;24.38;7.97;;;;;;;6.34;98.80;102557.19;4899090;29;21199;-70
2022/01/25 03:31:14;;;;;;;25.13;7.32;;;;;;;6.23;99.75;102555.69;4919990;29;20032;-71
2022/01/25 03:33:39;;;;;;;21.80;7.45;;;;;;;6.29;99.78;102552.69;4892798;29;20036;-71
2022/01/25 03:36:07;;;;;;;30.52;8.43;;;;;;;6.20;99.91;102553.53;4903097;29;20043;-70
2022/01/25 03:38:34;;;;;;;24.00;7.50;;;;;;;6.25;99.75;102558.88;4924912;29;20039;-71
2022/01/25 03:41:03;;;;;;;27.13;7.78;;;;;;;6.19;100.00;102560.75;4922796;29;20139;-70
2022/01/25 03:43:29;;;;;;;24.67;7.65;;;;;;;6.17;100.00;102559.47;4924626;29;20035;-70
2022/01/25 03:46:01;;;;;;;25.38;6.93;;;;;;;6.38;99.67;102558.25;4923057;29;20411;-71
2022/01/25 03:50:53;;;;;;;34.50;8.23;;;;;;;6.29;100.00;102536.63;4923444;29;20039;-70
2022/01/25 03:53:19;;;;;;;21.60;7.47;;;;;;;6.32;100.00;102532.59;4904760;29;20512;-71
2022/01/25 03:55:47;;;;;;;28.73;8.05;;;;;;;6.25;100.00;102537.47;4922721;29;20054;-71
2022/01/25 03:58:13;;;;;;;26.83;8.85;;;;;;;6.21;100.00;102539.13;4918560;29;20040;-70
2022/01/25 04:00:39;;;;;;;26.45;7.85;;;;;;;6.23;100.00;102543.09;4925157;29;20035;-71
2022/01/25 04:05:48;;;;;;;31.65;7.95;;;;;;;6.36;99.77;102539.00;4923428;29;20079;-71
2022/01/25 04:08:15;;;;;;;23.92;7.38;;;;;;;6.28;100.00;102540.38;4922807;29;20495;-71
2022/01/25 04:10:41;;;;;;;29.02;7.88;;;;;;;6.39;99.59;102549.13;4919494;29;20036;-71
2022/01/25 04:13:07;;;;;;;28.98;9.68;;;;;;;6.65;98.29;102534.47;4923178;29;20094;-71
2022/01/25 04:15:33;;;;;;;25.30;7.80;;;;;;;6.62;97.97;102548.41;4924631;29;20032;-70
2022/01/25 04:20:55;;;;;;;22.35;7.43;;;;;;;6.55;99.23;102544.44;4921192;29;20733;-71
2022/01/25 04:26:04;;;;;;;27.77;8.85;;;;;;;6.42;99.14;102535.19;4925467;29;20037;-70
2022/01/25 04:28:29;;;;;;;33.20;7.65;;;;;;;6.31;99.82;102536.34;4924146;29;20484;-70
2022/01/25 04:30:55;;;;;;;26.08;8.52;;;;;;;6.20;100.00;102527.59;4920917;29;20127;-70
2022/01/25 04:33:25;;;;;;;24.77;7.05;;;;;;;6.26;100.00;102523.81;4921833;29;20886;-69
2022/01/25 04:36:27;;;;;;;23.25;7.97;;;;;;;6.13;100.00;102524.47;4922025;29;20050;-69
2022/01/25 04:49:53;;;;;;;30.65;7.72;;;;;;;6.19;100.00;102522.53;4923531;29;20405;-68
2022/01/25 04:52:21;;;;;;;26.58;8.38;;;;;;;6.23;100.00;102526.25;4921528;29;20039;-70
2022/01/25 04:55:13;;;;;;;29.08;8.38;;;;;;;6.41;100.00;102525.56;4921316;29;20397;-72
2022/01/25 04:57:44;;;;;;;26.75;8.07;;;;;;;6.28;100.00;102527.00;4923046;29;20044;-70
2022/01/25 05:00:20;;;;;;;27.83;8.63;;;;;;;6.21;100.00;102520.38;4922418;29;20115;-73
2022/01/25 05:02:56;;;;;;;25.17;8.20;;;;;;;6.23;100.00;102516.34;4902243;29;20449;-70
2022/01/25 05:05:36;;;;;;;31.90;9.30;;;;;;;6.31;100.00;102513.06;4988761;22;20078;-71
2022/01/25 05:08:15;;;;;;;29.73;8.55;;;;;;;6.23;100.00;102513.66;4959649;28;20046;-71
2022/01/25 05:10:50;;;;;;;29.67;8.75;;;;;;;6.12;100.00;102512.16;4964221;28;20467;-73
2022/01/25 05:13:40;;;;;;;22.70;8.40;;;;;;;6.33;100.00;102521.63;4973653;28;20483;-71
2022/01/25 05:16:16;;;;;;;32.72;7.65;;;;;;;6.35;100.00;102516.78;4970239;28;20083;-71
2022/01/25 05:18:46;;;;;;;31.40;8.65;;;;;;;6.26;100.00;102515.00;4962023;28;20384;-73
2022/01/25 05:23:58;;;;;;;23.52;6.38;;;;;;;6.22;100.00;102520.09;4945526;28;20051;-71
2022/01/25 05:26:25;;;;;;;28.10;9.10;;;;;;;6.17;100.00;102520.16;4941058;28;20109;-71
2022/01/25 05:28:50;;;;;;;22.92;7.05;;;;;;;6.26;100.00;102528.38;4958623;28;20043;-71
2022/01/25 05:31:16;;;;;;;25.98;7.53;;;;;;;6.20;100.00;102524.13;4956377;28;20041;-71
2022/01/25 05:33:42;;;;;;;35.00;9.00;;;;;;;6.10;100.00;102525.00;4960698;28;20121;-70
2022/01/25 05:36:07;;;;;;;29.92;8.65;;;;;;;6.21;100.00;102531.88;4961519;28;20122;-71
2022/01/25 05:38:33;;;;;;;34.92;9.25;;;;;;;6.47;100.00;102539.69;4946103;28;20039;-72
2022/01/25 05:41:01;;;;;;;19.92;7.55;;;;;;;6.52;99.86;102532.44;4959107;28;20049;-71
2022/01/25 05:46:18;;;;;;;29.52;8.48;;;;;;;6.25;100.00;102537.47;4943039;28;20074;-72
2022/01/25 05:48:46;;;;;;;35.80;9.18;;;;;;;6.43;100.00;102523.41;4944777;28;20035;-74
2022/01/25 05:51:12;;;;;;;28.70;8.27;;;;;;;6.20;100.00;102522.25;4938005;28;20031;-72
2022/01/25 05:53:37;;;;;;;34.95;10.98;;;;;;;6.14;100.00;102528.72;4951184;28;20034;-71
2022/01/25 05:56:04;;;;;;;34.45;9.65;;;;;;;6.17;100.00;102532.72;4958491;28;20045;-72
2022/01/25 05:58:29;;;;;;;28.48;8.75;;;;;;;6.28;100.00;102516.31;4960281;28;20077;-72
2022/01/25 06:00:55;;;;;;;37.05;9.15;;;;;;;6.16;100.00;102523.09;4946890;28;20443;-72
2022/01/25 06:03:21;;;;;;;27.38;8.95;;;;;;;6.13;100.00;102518.31;4960556;28;20041;-72
2022/01/25 06:05:47;;;;;;;23.52;7.05;;;;;;;6.18;100.00;102515.56;4954325;28;20956;-74
2022/01/25 06:08:13;;;;;;;26.63;6.97;;;;;;;6.46;100.00;102525.53;4957755;28;20543;-72
2022/01/25 06:10:38;;;;;;;23.52;8.25;;;;;;;6.25;100.00;102529.47;4957413;28;20038;-71
2022/01/25 06:13:04;;;;;;;33.90;8.98;;;;;;;6.28;100.00;102510.97;4952272;28;20039;-72
2022/01/25 06:15:30;;;;;;;33.83;9.32;;;;;;;6.13;100.00;102508.41;4961987;28;20033;-72
2022/01/25 06:17:55;;;;;;;37.38;9.13;;;;;;;6.13;100.00;102518.31;4954977;28;20035;-71
2022/01/25 06:20:21;;;;;;;28.52;8.70;;;;;;;6.19;100.00;102514.53;4956077;28;20097;-72
2022/01/25 06:22:47;;;;;;;31.48;7.70;;;;;;;6.35;100.00;102510.63;4937152;28;20039;-72
2022/01/25 06:25:13;;;;;;;30.58;8.32;;;;;;;6.28;100.00;102520.84;4959462;28;20039;-72
2022/01/25 06:27:40;;;;;;;33.63;8.10;;;;;;;6.33;100.00;102518.94;4941699;28;20030;-72
2022/01/25 06:30:11;;;;;;;23.70;6.88;;;;;;;6.32;100.00;102522.72;4960183;28;20043;-71
2022/01/25 06:32:36;;;;;;;;;;;;;;;6.28;100.00;102519.00;4957126;28;20097;-72
2022/01/25 06:35:04;;;;;;;26.23;7.68;;;;;;;6.27;100.00;102528.06;4951236;28;19926;-72
2022/01/25 06:37:29;;;;;;;34.58;8.02;;;;;;;6.19;100.00;102519.88;4959009;28;20041;-72
2022/01/25 06:39:56;;;;;;;32.20;8.45;;;;;;;6.27;100.00;102520.06;4958709;28;20110;-72
2022/01/25 06:42:22;;;;;;;26.10;8.45;;;;;;;6.27;100.00;102521.94;4936936;28;20043;-72
2022/01/25 06:44:52;;;;;;;27.55;8.60;;;;;;;6.37;100.00;102524.53;4959070;28;20034;-72
2022/01/25 06:47:17;;;;;;;32.00;7.65;;;;;;;6.26;100.00;102512.31;4952150;28;20045;-72
2022/01/25 06:49:42;;;;;;;27.13;9.05;;;;;;;6.22;100.00;102525.44;4959457;28;20034;-73
2022/01/25 06:52:08;;;;;;;29.58;8.13;;;;;;;6.25;100.00;102521.44;4957330;28;20090;-72
2022/01/25 06:54:34;;;;;;;30.55;9.18;;;;;;;6.26;100.00;102529.16;4957660;28;20617;-72
2022/01/25 06:56:59;;;;;;;28.25;9.10;;;;;;;6.18;100.00;102521.72;4963844;28;20030;-72
2022/01/25 06:59:26;;;;;;;29.63;8.13;;;;;;;6.35;100.00;102527.47;4946098;28;20070;-72
2022/01/25 07:01:51;;;;;;;27.30;8.05;;;;;;;6.49;100.00;102519.63;4961968;28;20533;-72
2022/01/25 07:04:16;;;;;;;24.90;8.07;;;;;;;6.30;100.00;102518.72;4962421;28;20038;-72
2022/01/25 07:06:42;;;;;;;26.67;8.05;;;;;;;6.17;100.00;102525.50;4946974;28;20042;-72
2022/01/25 07:09:08;;;;;;;40.08;8.82;;;;;;;6.13;100.00;102529.81;4963105;28;20039;-72
2022/01/25 07:11:34;;;;;;;25.58;7.85;;;;;;;6.21;100.00;102536.44;4961233;28;20069;-72
2022/01/25 07:13:59;;;;;;;26.27;7.78;;;;;;;6.13;100.00;102537.84;4962561;28;20070;-72
2022/01/25 07:16:25;;;;;;;30.80;7.97;;;;;;;6.21;100.00;102549.81;4963248;28;20674;-72
2022/01/25 07:18:51;;;;;;;20.00;7.25;;;;;;;6.26;100.00;102544.41;4943218;28;20467;-73
2022/01/25 07:21:16;;;;;;;31.27;7.05;;;;;;;6.27;100.00;102544.13;4942077;28;20114;-71
2022/01/25 07:23:42;;;;;;;32.17;8.30;;;;;;;6.21;100.00;102544.47;4957881;28;20542;-71
2022/01/25 07:26:07;;;;;;;24.92;7.70;;;;;;;6.18;100.00;102548.47;4958193;28;20042;-71
2022/01/25 07:28:33;;;;;;;34.00;10.00;;;;;;;6.24;100.00;102544.69;4955592;28;20157;-72
2022/01/25 07:30:59;;;;;;;19.10;8.50;;;;;;;6.24;100.00;102541.22;4962358;28;20407;-72
2022/01/25 07:33:24;;;;;;;25.02;8.95;;;;;;;6.30;100.00;102550.81;4961730;28;20035;-72
2022/01/25 07:35:50;;;;;;;27.48;8.82;;;;;;;6.41;100.00;102548.88;4962931;28;20046;-71
2022/01/25 07:38:15;;;;;;;29.33;8.40;;;;;;;6.27;100.00;102546.81;4945537;28;20388;-72
2022/01/25 07:40:42;;;;;;;30.10;8.95;;;;;;;6.36;100.00;102555.03;4933601;28;20519;-72
2022/01/25 07:43:08;;;;;;;32.13;9.43;;;;;;;6.52;100.00;102553.84;4960375;28;20046;-71
2022/01/25 07:45:56;;;;;;;20.38;8.02;;;;;;;6.55;100.00;102558.63;4963511;28;20535;-72
2022/01/25 07:48:21;;;;;;;23.48;7.97;;;;;;;6.37;100.00;102562.78;4905168;29;20052;-72
2022/01/25 07:50:48;;;;;;;24.13;8.18;;;;;;;6.34;100.00;102565.22;4913401;29;20051;-72
2022/01/25 07:53:14;;;;;;;30.00;8.65;;;;;;;6.33;100.00;102560.94;4903533;29;20040;-71
2022/01/25 07:55:40;;;;;;;29.40;8.50;;;;;;;6.30;100.00;102558.84;4899376;29;20071;-71
2022/01/25 07:58:05;;;;;;;22.13;7.47;;;;;;;6.34;100.00;102558.00;4899087;29;20156;-71
2022/01/25 08:00:32;;;;;;;26.85;7.50;;;;;;;6.26;100.00;102565.81;4900049;29;20044;-71
2022/01/25 08:02:58;;;;;;;20.67;7.30;;;;;;;6.47;100.00;102563.78;4885255;29;20055;-71
2022/01/25 08:05:26;;;;;;;30.67;7.28;;;;;;;6.32;100.00;102559.34;4901433;29;20052;-72
2022/01/25 08:07:55;;;;;;;27.35;7.43;;;;;;;6.41;100.00;102555.00;4896680;29;20051;-71
2022/01/25 08:10:22;;;;;;;30.75;8.52;;;;;;;6.35;100.00;102558.78;4903742;29;20039;-71
2022/01/25 08:12:47;;;;;;;24.95;8.45;;;;;;;6.31;100.00;102555.88;4898345;29;20067;-72
2022/01/25 08:15:14;;;;;;;32.42;8.98;;;;;;;6.24;100.00;102555.41;4902292;29;20492;-71
2022/01/25 08:17:39;;;;;;;26.15;6.85;;;;;;;6.37;100.00;102556.63;4895190;29;20143;-72
2022/01/25 08:20:06;;;;;;;26.33;7.60;;;;;;;6.38;100.00;102563.59;4905682;29;21103;-72
2022/01/25 08:22:33;;;;;;;27.63;7.93;;;;;;;6.32;100.00;102559.34;4900335;29;20425;-72
2022/01/25 08:24:59;;;;;;;30.08;7.85;;;;;;;6.29;100.00;102560.69;4922714;28;20058;-72
2022/01/25 08:27:25;;;;;;;24.92;8.10;;;;;;;6.35;100.00;102566.81;4952050;28;20035;-71
2022/01/25 08:29:51;;;;;;;23.35;7.32;;;;;;;6.34;100.00;102574.06;4943840;28;20043;-72
2022/01/25 08:32:17;;;;;;;24.13;8.57;;;;;;;6.28;100.00;102569.81;4956691;28;20046;-73
2022/01/25 08:34:43;;;;;;;26.98;8.70;;;;;;;6.37;100.00;102567.34;4942899;28;20039;-72
2022/01/25 08:37:08;;;;;;;25.45;7.60;;;;;;;6.42;100.00;102555.81;4959043;28;20045;-71
2022/01/25 08:39:34;;;;;;;25.88;7.57;;;;;;;6.37;100.00;102560.09;4950864;28;20039;-72
2022/01/25 08:42:00;;;;;;;23.38;7.82;;;;;;;6.40;100.00;102561.44;4955062;28;20077;-72
2022/01/25 08:44:26;;;;;;;19.88;7.25;;;;;;;6.40;100.00;102566.78;4960277;28;20101;-72
2022/01/25 08:46:52;;;;;;;28.70;8.20;;;;;;;6.41;100.00;102572.94;4961548;28;20031;-72
2022/01/25 08:49:17;;;;;;;23.92;7.45;;;;;;;6.41;100.00;102565.69;4959004;28;20109;-71
2022/01/25 08:51:43;;;;;;;25.85;7.38;;;;;;;6.45;100.00;102561.38;4961216;28;20084;-74
2022/01/25 08:54:08;;;;;;;25.85;7.50;;;;;;;6.41;100.00;102562.25;4961705;28;20039;-72
2022/01/25 08:56:34;;;;;;;25.20;8.68;;;;;;;6.35;100.00;102569.47;4943775;28;20063;-72
2022/01/25 08:59:00;;;;;;;21.45;7.25;;;;;;;6.53;100.00;102560.78;4958893;28;20085;-72
2022/01/25 09:01:26;;;;;;;34.53;8.77;;;;;;;6.56;100.00;102568.28;4937867;28;20766;-71
2022/01/25 09:03:54;;;;;;;26.52;8.02;;;;;;;6.63;100.00;102562.59;4959742;28;20074;-72
2022/01/25 09:06:20;;;;;;;27.48;8.48;;;;;;;6.54;100.00;102566.94;4955193;28;20046;-72
2022/01/25 09:08:46;;;;;;;26.02;8.27;;;;;;;6.56;100.00;102570.16;4958918;28;20042;-72
2022/01/25 09:11:11;;;;;;;22.08;6.90;;;;;;;6.63;100.00;102563.38;4960173;28;20027;-72
2022/01/25 09:13:38;;;;;;;25.25;7.30;;;;;;;6.71;100.00;102570.81;4961612;28;20498;-71
2022/01/25 09:16:04;;;;;;;23.77;7.57;;;;;;;6.58;100.00;102563.41;4961429;28;20458;-72
2022/01/25 09:18:30;;;;;;;22.45;6.60;;;;;;;6.63;100.00;102570.63;4960222;28;20043;-71
2022/01/25 09:20:56;;;;;;;29.15;7.85;;;;;;;6.57;100.00;102572.53;4937575;28;20039;-72
2022/01/25 09:23:23;;;;;;;26.17;7.45;;;;;;;6.62;100.00;102579.75;4959595;28;20069;-72
2022/01/25 09:25:49;;;;;;;28.70;7.20;;;;;;;6.60;100.00;102571.19;4961533;28;20458;-71
2022/01/25 09:28:16;;;;;;;22.05;7.32;;;;;;;6.63;100.00;102570.63;4957032;28;20047;-71
2022/01/25 09:30:42;;;;;;;25.35;7.15;;;;;;;6.66;100.00;102565.50;4954995;28;20046;-71
2022/01/25 09:33:08;;;;;;;24.80;7.03;;;;;;;6.60;100.00;102571.19;4961579;28;20034;-71
2022/01/25 09:35:33;;;;;;;24.58;6.70;;;;;;;6.55;100.00;102577.38;4960874;28;20372;-71
2022/01/25 09:37:59;;;;;;;31.20;7.95;;;;;;;6.50;100.00;102576.63;4943170;28;20468;-71
2022/01/25 09:40:24;;;;;;;18.38;6.90;;;;;;;6.60;100.00;102577.31;4956097;28;20042;-71
2022/01/25 09:42:53;;;;;;;24.58;7.03;;;;;;;6.65;100.00;102584.50;4960246;28;20074;-72
2022/01/25 09:45:19;;;;;;;31.42;8.48;;;;;;;6.66;100.00;102583.44;4960951;28;20078;-71
2022/01/25 09:47:45;;;;;;;22.45;7.82;;;;;;;6.57;100.00;102590.47;4959795;28;20046;-72
2022/01/25 09:50:11;;;;;;;34.60;7.45;;;;;;;6.68;100.00;102590.09;4960151;28;20149;-71
2022/01/25 09:52:39;;;;;;;21.92;6.00;;;;;;;6.67;100.00;102579.69;4959975;28;20121;-71
2022/01/25 09:55:10;;;;;;;25.30;7.50;;;;;;;6.69;100.00;102575.66;4961002;28;20498;-72
2022/01/25 09:57:35;;;;;;;20.60;6.40;;;;;;;6.69;100.00;102580.19;4958572;28;20058;-72
2022/01/25 10:00:03;;;;;;;22.95;6.13;;;;;;;6.82;100.00;102580.34;4955965;28;20035;-71
2022/01/25 10:02:59;;;;;;;23.90;6.93;;;;;;;6.67;100.00;102577.81;4959825;28;20058;-71
2022/01/25 10:05:31;;;;;;;19.00;5.97;;;;;;;6.69;100.00;102580.19;4960090;28;20137;-71
2022/01/25 10:08:05;;;;;;;32.20;6.07;;;;;;;6.69;100.00;102582.88;4957909;28;20142;-71
2022/01/25 10:10:32;;;;;;;22.25;6.57;;;;;;;6.83;100.00;102568.53;4955549;28;20097;-72
2022/01/25 10:13:08;;;;;;;26.98;7.20;;;;;;;6.77;100.00;102575.06;4959059;28;20045;-71
2022/01/25 10:15:34;;;;;;;23.60;6.82;;;;;;;6.68;100.00;102574.03;4958753;28;20114;-72
2022/01/25 10:17:59;;;;;;;26.50;6.88;;;;;;;6.60;100.00;102579.22;4960307;28;20117;-71
2022/01/25 10:20:32;;;;;;;25.15;6.80;;;;;;;6.67;100.00;102577.00;4957817;28;20395;-71
2022/01/25 10:23:00;;;;;;;18.90;7.15;;;;;;;6.71;100.00;102591.44;4955942;28;20498;-71
2022/01/25 10:25:55;;;;;;;22.52;5.95;;;;;;;6.94;100.00;102578.09;4960945;28;20480;-71
2022/01/25 10:28:28;;;;;;;17.80;5.80;;;;;;;6.98;100.00;102584.50;4937490;28;20050;-71
2022/01/25 10:30:59;;;;;;;19.00;6.22;;;;;;;7.17;100.00;102580.00;4951954;28;20119;-71
2022/01/25 10:33:32;;;;;;;20.92;6.82;;;;;;;6.95;100.00;102579.69;4952720;28;20034;-71
2022/01/25 10:36:10;;;;;;;22.98;6.32;;;;;;;6.94;100.00;102572.75;4954012;28;20606;-71
2022/01/25 10:38:36;;;;;;;30.65;7.60;;;;;;;6.85;100.00;102573.66;4955624;28;20044;-72
2022/01/25 10:41:09;;;;;;;33.53;7.55;;;;;;;7.06;100.00;102567.00;4954841;28;20282;-72
2022/01/25 10:43:36;;;;;;;19.40;6.05;;;;;;;7.07;100.00;102566.72;4955421;28;20121;-71
2022/01/25 10:46:26;;;;;;;25.77;6.50;;;;;;;6.96;100.00;102564.44;4951258;28;20066;-72
2022/01/25 10:49:06;;;;;;;26.17;7.68;;;;;;;7.14;100.00;102572.53;4956815;28;20514;-71
2022/01/25 10:51:45;;;;;;;23.75;7.03;;;;;;;7.13;100.00;102568.25;4957295;28;20034;-71
2022/01/25 10:54:19;;;;;;;26.88;6.40;;;;;;;7.12;100.00;102566.66;4956266;28;20062;-71
2022/01/25 10:56:59;;;;;;;26.42;6.25;;;;;;;7.00;100.00;102568.94;4941800;28;20520;-72
2022/01/25 10:59:29;;;;;;;26.25;6.43;;;;;;;7.12;100.00;102574.69;4958121;28;20042;-71
2022/01/25 11:02:00;;;;;;;26.67;7.80;;;;;;;7.15;100.00;102574.13;4955813;28;20030;-71
2022/01/25 11:04:33;;;;;;;22.95;5.53;;;;;;;7.18;100.00;102562.84;4947101;28;20046;-70
2022/01/25 11:07:02;;;;;;;23.42;6.55;;;;;;;7.15;100.00;102563.44;4956447;28;20105;-71
2022/01/25 11:09:34;;;;;;;24.52;6.82;;;;;;;7.27;100.00;102561.16;4941361;28;20515;-71
2022/01/25 11:12:01;;;;;;;17.67;5.82;;;;;;;7.23;100.00;102548.59;4963641;23;20047;-69
2022/01/25 11:17:11;;;;;;;19.95;7.20;;;;;;;7.05;100.00;102542.09;4954793;28;20046;-69
2022/01/25 11:19:36;;;;;;;23.58;6.18;;;;;;;7.18;100.00;102556.72;4957373;28;20085;-69
2022/01/25 11:22:02;;;;;;;24.48;6.07;;;;;;;7.10;100.00;102547.38;4957839;28;20046;-71
2022/01/25 11:24:31;;;;;;;20.02;5.85;;;;;;;7.16;100.00;102535.53;4950406;28;20035;-70
2022/01/25 11:27:01;;;;;;;27.80;6.68;;;;;;;7.03;100.00;102532.75;4958471;28;20057;-71
2022/01/25 11:29:27;;;;;;;29.50;6.85;;;;;;;7.14;100.00;102528.88;4959394;28;20042;-71
2022/01/25 11:31:57;;;;;;;25.52;6.43;;;;;;;7.32;100.00;102534.28;4955737;28;20085;-70
2022/01/25 11:34:26;;;;;;;21.60;6.18;;;;;;;7.19;100.00;102528.81;4950262;28;20030;-69
2022/01/25 11:36:55;;;;;;;24.48;7.55;;;;;;;7.19;100.00;102537.66;4951195;28;20043;-67
2022/01/25 11:39:24;;;;;;;20.80;5.55;;;;;;;7.23;100.00;102527.16;4958763;28;20093;-69
2022/01/25 11:41:51;;;;;;;19.40;5.60;;;;;;;7.35;100.00;102524.88;4959068;28;20402;-68
2022/01/25 11:44:21;;;;;;;14.25;5.88;;;;;;;7.36;100.00;102525.66;4955453;28;20046;-69
2022/01/25 11:46:50;;;;;;;21.65;6.60;;;;;;;7.23;100.00;102517.25;4953635;28;20050;-68
2022/01/25 11:49:19;;;;;;;15.48;5.97;;;;;;;7.36;100.00;102520.31;4948251;28;20528;-68
2022/01/25 11:52:02;;;;;;;20.05;6.07;;;;;;;7.40;100.00;102518.66;4953125;28;20101;-69
2022/01/25 11:54:28;;;;;;;23.50;7.05;;;;;;;7.37;100.00;102511.19;4955623;28;20047;-68
2022/01/25 11:57:10;;;;;;;16.45;5.72;;;;;;;7.27;100.00;102515.59;4957602;28;20103;-68
2022/01/25 11:59:36;;;;;;;15.52;5.47;;;;;;;7.34;100.00;102515.25;4958356;28;20130;-69
2022/01/25 12:02:02;;;;;;;14.23;5.82;;;;;;;7.39;100.00;102515.19;4957532;28;20039;-69
2022/01/25 12:04:31;;;;;;;21.45;6.80;;;;;;;7.60;100.00;102508.50;4956619;28;20120;-68
2022/01/25 12:07:00;;;;;;;17.75;4.90;;;;;;;7.65;100.00;102505.72;4939391;28;20043;-68
2022/01/25 12:09:44;;;;;;;25.60;5.97;;;;;;;7.42;100.00;102508.44;4961364;28;20038;-69
2022/01/25 12:12:12;;;;;;;15.18;5.00;;;;;;;7.21;100.00;102498.00;4953999;28;20038;-68
2022/01/25 12:14:54;;;;;;;17.70;6.15;;;;;;;7.42;100.00;102498.53;4933787;28;20027;-68
2022/01/25 12:17:25;;;;;;;16.33;5.53;;;;;;;7.51;100.00;102499.47;4957702;28;20042;-69
2022/01/25 12:19:54;;;;;;;19.88;6.60;;;;;;;7.51;100.00;102506.75;4956973;28;20089;-69
2022/01/25 12:22:26;;;;;;;23.92;6.25;;;;;;;7.35;100.00;102497.28;4957312;28;20070;-70
2022/01/25 12:27:39;;;;;;;17.55;6.22;;;;;;;7.47;100.00;102495.78;4955797;28;20396;-67
2022/01/25 12:30:16;;;;;;;15.43;6.10;;;;;;;7.37;100.00;102495.13;4960295;28;20058;-72
2022/01/25 12:32:50;;;;;;;16.38;5.28;;;;;;;7.51;100.00;102496.78;4947747;28;20034;-69
2022/01/25 12:35:20;;;;;;;17.73;4.78;;;;;;;7.54;100.00;102488.19;4956692;28;20034;-69
2022/01/25 12:37:46;;;;;;;19.52;5.28;;;;;;;7.34;100.00;102479.63;4952630;28;20507;-69
2022/01/25 12:40:28;;;;;;;19.92;5.40;;;;;;;7.23;100.00;102482.44;4962287;28;20031;-69
2022/01/25 12:43:00;;;;;;;21.95;5.07;;;;;;;7.19;100.00;102484.09;4956466;28;20028;-67
2022/01/25 12:45:29;;;;;;;14.23;5.43;;;;;;;7.21;100.00;102492.63;4940891;28;20059;-68
2022/01/25 12:47:56;;;;;;;18.65;6.00;;;;;;;7.31;100.00;102483.66;4966876;28;20057;-68
2022/01/25 12:50:23;;;;;;;17.52;5.85;;;;;;;7.36;100.00;102485.47;4955366;28;20491;-69
2022/01/25 12:52:49;;;;;;;17.15;6.32;;;;;;;7.40;100.00;102478.47;4949447;28;20039;-69
2022/01/25 12:55:21;;;;;;;17.20;4.35;;;;;;;7.59;100.00;102485.44;4935958;28;20049;-69
2022/01/25 12:57:48;;;;;;;14.85;5.82;;;;;;;7.51;100.00;102480.72;4955862;28;20388;-70
2022/01/25 13:00:14;;;;;;;19.02;5.72;;;;;;;7.70;100.00;102467.34;4956081;28;20195;-69